Airfield :
LOGIN :

Register | Disclaimer

   EN    FR    IT 

 










Legend :    VFR   Marginal VFR   IFR   Intensive IFR   Very Intensive IFR
Visi :
Ceiling :
>= 8 km
>= 3000ft
5 to 8 km
1000 to 3000 ft
1500m to 5 km
500 to 1000 ft
800 to 1500m
200 to 500 ft
< 800m
< 200 ft
Symbols :   Thunderstorms  Fog  Heavy snow  Heavy precipitations  Wind > 20 kt
SIGMETs :     Misc.  Thunderstorms  Icing  Turbulence  Mountain Waves  Volcanic Ashes







- Airport Elevation : 42 ft
- IATA code : KGD


UMKK - Khrabrava - Kaliningrad

CURRENT METAR :
  • 262330Z 13002MPS 8000 FEW030 16/15 Q1024 R24/29//55 NOSIG RMK QFE767/1023

EXPIRED METARs :
  • 262300Z 11002MPS 080V140 7000 SCT033 16/15 Q1025 R24/29//55 NOSIG RMK QFE767/1023
  • 262230Z VRB01MPS 9999 SCT031 16/16 Q1024 R24/29//55 NOSIG RMK QFE767/1023
  • 262200Z 08002MPS 9999 SCT030CB 16/16 Q1025 R24/29//55 NOSIG RMK QFE767/1023
  • 262130Z 09003MPS 9999 SCT030CB 16/15 Q1025 R24/29//55 NOSIG RMK QFE767/1023
  • 262100Z 06002MPS 9999 -SHRA BKN029CB 16/15 Q1024 R24/29//55 NOSIG RMK QFE767/1023
  • 262030Z 07002MPS 9999 SCT028CB 16/15 Q1025 R24/29//55 NOSIG RMK QFE767/1023

TAF TAF UMKK
Valid from the 27 at 00:00 until the 28 at 00:00 UTC


262257Z 2700/2724 07003G08MPS 3100 -SHRA BR SCT011 BKN020CB
TEMPO 2700/2706 VRB01MPS 0300 -TSRA FG VV002
FM270900 02003G08MPS 9999 SCT025CB
PROB40
TEMPO 2710/2720 TS
BECMG 2722/2724 08003G08MPS NSC
1 SIGMET reported for the Kaliningrad FIR (UMKK) :
 
Embedded thunderstorms
UMKK SIGMET 3 VALID 262000/270000 UMKK
UMKK KALININGRAD FIR EMBD TS FCST ENTIRE FIR TOP FL330 MOV NW 10KMH WKN=



MET'MAP, your aeronautical weather chart ! - Copyright ORBIFLY December 2007 - Disclaimer

ORBIFLY MET'MAP TEAM :

Programming & Development : Alexandra Zaïnal
Concept & Development : Baudouin d'Aumeries
Co-Development & Prog : Marc-Olivier Méhu
Technical & hardware support : Manuel Goepfert

Contact : metmap@orbifly.com




SOURCES & CREDITS :

   NOAA